createdAt,value
2023-07-07T00:01:02.544Z,14.46
2023-07-07T00:02:07.580Z,14.45
2023-07-07T00:03:10.163Z,14.41
2023-07-07T00:04:12.642Z,14.30
2023-07-07T00:05:15.071Z,14.31
2023-07-07T00:06:17.289Z,14.28
2023-07-07T00:07:19.675Z,14.25
2023-07-07T00:08:22.081Z,14.20
2023-07-07T00:09:26.084Z,14.13
2023-07-07T00:10:28.441Z,14.10
2023-07-07T00:11:30.853Z,13.99
2023-07-07T00:12:33.229Z,14.01
2023-07-07T00:13:35.499Z,14.03
2023-07-07T00:14:37.783Z,14.08
2023-07-07T00:15:45.332Z,14.15
2023-07-07T00:16:47.771Z,14.27
2023-07-07T00:17:51.291Z,14.15
2023-07-07T00:18:53.716Z,14.06
2023-07-07T00:19:56.030Z,14.05
2023-07-07T00:21:00.921Z,14.10
2023-07-07T00:22:06.454Z,14.15
2023-07-07T00:23:08.872Z,14.25
2023-07-07T00:24:11.517Z,14.37
2023-07-07T00:25:14.166Z,14.28
2023-07-07T00:26:16.499Z,14.32
2023-07-07T00:27:18.900Z,14.34
2023-07-07T00:28:21.175Z,14.45
2023-07-07T00:29:23.964Z,14.51
2023-07-07T00:30:26.301Z,14.50
2023-07-07T00:31:29.358Z,14.57
2023-07-07T00:32:32.444Z,14.58
2023-07-07T00:33:34.851Z,14.43
2023-07-07T00:34:37.108Z,14.38
2023-07-07T00:35:48.909Z,14.50
2023-07-07T00:36:51.317Z,14.46
2023-07-07T00:37:54.893Z,14.49
2023-07-07T00:38:57.179Z,14.25
2023-07-07T00:39:59.923Z,14.12
2023-07-07T00:41:07.039Z,14.01
2023-07-07T00:42:11.730Z,14.00
2023-07-07T00:43:16.834Z,13.94
2023-07-07T00:44:19.215Z,14.04
2023-07-07T00:45:22.416Z,13.96
2023-07-07T00:46:25.234Z,13.86
2023-07-07T00:47:27.867Z,13.79
2023-07-07T00:48:32.803Z,13.77
2023-07-07T00:49:35.078Z,13.89
2023-07-07T00:50:46.245Z,13.82
2023-07-07T00:52:00.377Z,13.73
2023-07-07T00:53:04.449Z,13.62
2023-07-07T00:54:12.675Z,13.65
2023-07-07T00:55:27.247Z,13.65
2023-07-07T00:56:35.713Z,13.60
2023-07-07T00:57:38.842Z,13.50
2023-07-07T00:58:42.997Z,13.46
2023-07-07T00:59:47.750Z,13.51
2023-07-07T01:00:55.820Z,13.44
2023-07-07T01:02:03.964Z,13.47
2023-07-07T01:03:13.305Z,13.42
2023-07-07T01:04:18.378Z,13.44
2023-07-07T01:05:22.950Z,13.45
2023-07-07T01:06:30.495Z,13.49
2023-07-07T01:07:38.937Z,13.61
2023-07-07T01:08:43.896Z,13.65
2023-07-07T01:09:46.110Z,13.73
2023-07-07T01:10:48.339Z,13.68
2023-07-07T01:11:50.744Z,13.57
2023-07-07T01:12:53.098Z,13.46
2023-07-07T01:13:57.613Z,13.38
2023-07-07T01:15:00.015Z,13.47
2023-07-07T01:16:40.782Z,13.50
2023-07-07T01:18:05.818Z,13.38
2023-07-07T01:19:50.954Z,13.32
2023-07-07T01:21:06.596Z,13.30
2023-07-07T01:22:31.797Z,13.41
2023-07-07T01:24:37.154Z,13.39
2023-07-07T01:25:56.629Z,13.33
2023-07-07T01:27:18.064Z,13.34
2023-07-07T01:28:49.848Z,13.31
2023-07-07T01:30:16.288Z,13.27
2023-07-07T01:31:23.618Z,13.34
2023-07-07T01:32:30.889Z,13.33
2023-07-07T01:33:33.581Z,13.26
2023-07-07T01:34:36.699Z,13.22
2023-07-07T01:35:39.172Z,13.15
2023-07-07T01:36:41.456Z,13.08
2023-07-07T01:38:01.766Z,13.08
2023-07-07T01:39:04.544Z,13.04
2023-07-07T01:40:07.558Z,12.98
2023-07-07T01:41:49.784Z,13.02
2023-07-07T01:42:59.155Z,13.02
2023-07-07T01:44:14.464Z,12.95
2023-07-07T01:45:31.287Z,12.95
2023-07-07T01:46:56.874Z,12.94
2023-07-07T01:48:12.298Z,12.97
2023-07-07T01:49:23.060Z,12.92
2023-07-07T01:50:30.878Z,12.93
2023-07-07T01:51:51.705Z,12.85
2023-07-07T01:52:58.382Z,13.00
2023-07-07T01:54:03.895Z,13.01
2023-07-07T01:55:15.288Z,13.06
2023-07-07T01:56:22.863Z,12.99
2023-07-07T01:57:28.472Z,12.96
2023-07-07T01:58:32.559Z,12.90
2023-07-07T01:59:35.472Z,12.97
2023-07-07T02:02:09.368Z,12.84
2023-07-07T02:03:12.152Z,12.82
2023-07-07T02:04:14.480Z,12.71
2023-07-07T02:05:17.776Z,12.72
2023-07-07T02:06:20.523Z,12.63
2023-07-07T02:07:22.761Z,12.62
2023-07-07T02:08:25.108Z,12.64
2023-07-07T02:09:27.906Z,12.56
2023-07-07T02:10:30.247Z,12.58
2023-07-07T02:11:32.480Z,12.72
2023-07-07T02:12:34.702Z,12.77
2023-07-07T02:13:37.731Z,12.75
2023-07-07T02:14:40.706Z,12.77
2023-07-07T02:15:42.992Z,12.73
2023-07-07T02:16:45.304Z,12.73
2023-07-07T02:17:49.099Z,12.66
2023-07-07T02:18:52.564Z,12.62
2023-07-07T02:19:54.864Z,12.65
2023-07-07T02:20:57.328Z,12.70
2023-07-07T02:21:59.840Z,12.74
2023-07-07T02:23:03.889Z,12.68
2023-07-07T02:24:06.271Z,12.64
2023-07-07T02:25:09.451Z,12.62
2023-07-07T02:26:14.844Z,12.67
2023-07-07T02:27:19.015Z,12.68
2023-07-07T02:28:21.285Z,12.69
2023-07-07T02:29:23.569Z,12.66
2023-07-07T02:30:26.351Z,12.62
2023-07-07T02:31:28.746Z,12.61
2023-07-07T02:32:31.127Z,12.56
2023-07-07T02:33:33.582Z,12.57
2023-07-07T02:34:36.917Z,12.69
2023-07-07T02:35:40.686Z,12.70
2023-07-07T02:36:42.946Z,12.63
2023-07-07T02:37:45.239Z,12.60
2023-07-07T02:38:47.716Z,12.72
2023-07-07T02:39:49.966Z,12.79
2023-07-07T02:40:52.214Z,12.78
2023-07-07T02:41:54.522Z,12.70
2023-07-07T02:42:56.898Z,12.62
2023-07-07T02:43:59.635Z,12.53
2023-07-07T02:45:02.060Z,12.57
2023-07-07T02:46:05.064Z,12.64
2023-07-07T02:47:08.808Z,12.70
2023-07-07T02:48:11.084Z,12.69
2023-07-07T02:49:13.287Z,12.54
2023-07-07T02:50:15.568Z,12.51
2023-07-07T02:51:18.112Z,12.48
2023-07-07T02:52:20.420Z,12.53
2023-07-07T02:53:24.995Z,12.58
2023-07-07T02:54:27.862Z,12.50
2023-07-07T02:55:30.197Z,12.35
2023-07-07T02:56:32.796Z,12.30
2023-07-07T02:57:35.148Z,12.30
2023-07-07T02:58:37.419Z,12.32
2023-07-07T02:59:39.726Z,12.30
2023-07-07T03:00:41.992Z,12.25
2023-07-07T03:01:48.003Z,12.22
2023-07-07T03:02:50.317Z,12.25
2023-07-07T03:03:53.448Z,12.29
2023-07-07T03:04:55.890Z,12.26
2023-07-07T03:06:04.008Z,12.24
2023-07-07T03:07:09.011Z,12.32
2023-07-07T03:08:11.941Z,12.29
2023-07-07T03:09:14.555Z,12.26
2023-07-07T03:10:20.633Z,12.24
2023-07-07T03:11:24.323Z,12.21
2023-07-07T03:12:29.118Z,12.17
2023-07-07T03:13:31.550Z,12.19
2023-07-07T03:14:34.091Z,12.25
2023-07-07T03:15:42.326Z,12.36
2023-07-07T03:16:59.597Z,12.34
2023-07-07T03:18:10.924Z,12.28
2023-07-07T03:19:16.530Z,12.31
2023-07-07T03:20:28.331Z,12.38
2023-07-07T03:21:34.594Z,12.40
2023-07-07T03:22:48.013Z,12.32
2023-07-07T03:23:52.078Z,12.27
2023-07-07T03:24:54.340Z,12.25
2023-07-07T03:26:14.523Z,12.16
2023-07-07T03:27:17.069Z,12.21
2023-07-07T03:28:19.703Z,12.07
2023-07-07T03:29:25.282Z,11.99
2023-07-07T03:30:28.566Z,12.05
2023-07-07T03:31:39.899Z,12.24
2023-07-07T03:32:42.759Z,12.26
2023-07-07T03:33:46.561Z,12.24
2023-07-07T03:34:51.158Z,12.27
2023-07-07T03:35:55.973Z,12.35
2023-07-07T03:36:58.305Z,12.31
2023-07-07T03:38:00.682Z,12.20
2023-07-07T03:39:04.232Z,12.33
2023-07-07T03:40:07.602Z,12.34
2023-07-07T03:41:22.133Z,12.33
2023-07-07T03:42:24.386Z,12.37
2023-07-07T03:43:26.912Z,12.34
2023-07-07T03:44:29.445Z,12.29
2023-07-07T03:45:35.070Z,12.26
2023-07-07T03:46:37.783Z,12.30
2023-07-07T03:47:40.069Z,12.44
2023-07-07T03:48:45.873Z,12.49
2023-07-07T03:49:50.856Z,12.38
2023-07-07T03:51:01.623Z,12.14
2023-07-07T03:52:04.242Z,12.14
2023-07-07T03:53:06.641Z,12.16
2023-07-07T03:54:10.482Z,12.19
2023-07-07T03:55:13.462Z,12.20
2023-07-07T03:56:16.905Z,12.25
2023-07-07T03:57:19.228Z,12.18
2023-07-07T03:58:22.180Z,12.12
2023-07-07T03:59:24.528Z,12.13
2023-07-07T04:00:27.160Z,12.14
2023-07-07T04:01:29.696Z,12.27
2023-07-07T04:02:31.965Z,12.25
2023-07-07T04:03:34.853Z,12.21
2023-07-07T04:04:37.291Z,12.26
2023-07-07T04:05:46.448Z,12.38
2023-07-07T04:06:48.902Z,12.59
2023-07-07T04:07:51.097Z,12.91
2023-07-07T04:08:53.810Z,13.12
2023-07-07T04:09:56.282Z,13.21
2023-07-07T04:11:04.612Z,13.30
2023-07-07T04:12:11.075Z,13.45
2023-07-07T04:13:13.309Z,13.52
2023-07-07T04:14:16.205Z,13.60
2023-07-07T04:15:18.427Z,13.69
2023-07-07T04:16:26.301Z,13.81
2023-07-07T04:17:28.633Z,13.92
2023-07-07T04:18:32.823Z,14.05
2023-07-07T04:19:35.082Z,14.05
2023-07-07T04:20:37.289Z,14.17
2023-07-07T04:21:39.485Z,14.16
2023-07-07T04:22:42.015Z,14.24
2023-07-07T04:23:46.986Z,14.29
2023-07-07T04:25:11.394Z,13.84
2023-07-07T04:26:14.313Z,13.79
2023-07-07T04:27:16.860Z,13.83
2023-07-07T04:28:19.147Z,14.41
2023-07-07T04:29:21.474Z,15.17
2023-07-07T04:30:23.705Z,15.72
2023-07-07T04:31:27.582Z,16.28
2023-07-07T04:32:30.016Z,16.82
2023-07-07T04:33:33.811Z,17.22
2023-07-07T04:34:36.088Z,17.64
2023-07-07T04:35:38.396Z,17.84
2023-07-07T04:36:43.021Z,18.38
2023-07-07T04:37:47.187Z,19.62
2023-07-07T04:38:50.693Z,21.22
2023-07-07T04:39:53.061Z,22.81
2023-07-07T04:40:55.615Z,23.70
2023-07-07T04:41:58.394Z,24.58
2023-07-07T04:43:00.620Z,25.89
2023-07-07T04:44:03.325Z,25.70
2023-07-07T04:45:06.352Z,25.82
2023-07-07T04:46:12.021Z,25.68
2023-07-07T04:47:14.400Z,26.61
2023-07-07T04:48:16.659Z,26.84
2023-07-07T04:49:19.464Z,27.12
2023-07-07T04:50:22.132Z,27.53
2023-07-07T04:51:24.767Z,27.76
2023-07-07T04:52:27.111Z,27.70
2023-07-07T04:53:31.809Z,28.06
2023-07-07T04:54:36.591Z,28.07
2023-07-07T04:55:46.340Z,28.24
2023-07-07T04:56:48.646Z,28.08
2023-07-07T04:57:50.900Z,27.92
2023-07-07T04:58:53.862Z,27.84
2023-07-07T04:59:56.109Z,27.67
2023-07-07T05:01:11.680Z,27.82
2023-07-07T05:02:14.093Z,27.26
2023-07-07T05:03:16.361Z,27.14
2023-07-07T05:04:18.704Z,26.76
2023-07-07T05:05:20.972Z,26.45
2023-07-07T05:06:24.865Z,26.76
2023-07-07T05:07:29.480Z,27.05
2023-07-07T05:08:37.834Z,27.32
2023-07-07T05:09:40.108Z,27.35
2023-07-07T05:10:42.361Z,27.20
2023-07-07T05:11:44.567Z,27.11
2023-07-07T05:12:46.783Z,27.41
2023-07-07T05:13:50.727Z,27.52
2023-07-07T05:14:53.387Z,27.39
2023-07-07T05:16:07.919Z,28.32
2023-07-07T05:17:10.181Z,29.30
2023-07-07T05:18:12.398Z,29.62
2023-07-07T05:19:14.584Z,29.80
2023-07-07T05:20:17.002Z,30.41
2023-07-07T05:21:21.107Z,29.80
2023-07-07T05:22:23.304Z,29.52
2023-07-07T05:23:25.801Z,28.93
2023-07-07T05:24:28.092Z,29.28
2023-07-07T05:25:30.346Z,29.00
2023-07-07T05:26:32.572Z,28.66
2023-07-07T05:27:34.793Z,28.52
2023-07-07T05:28:37.479Z,28.65
2023-07-07T05:29:39.659Z,28.63
2023-07-07T05:30:42.682Z,28.11
2023-07-07T05:31:45.017Z,28.18
2023-07-07T05:32:47.469Z,28.03
2023-07-07T05:33:49.680Z,28.12
2023-07-07T05:34:51.864Z,28.46
2023-07-07T05:35:57.106Z,29.15
2023-07-07T05:36:59.288Z,29.27
2023-07-07T05:38:02.213Z,29.41
2023-07-07T05:39:07.333Z,29.79
2023-07-07T05:40:09.824Z,30.38
2023-07-07T05:41:12.552Z,30.72
2023-07-07T05:42:14.744Z,30.53
2023-07-07T05:43:18.599Z,30.79
2023-07-07T05:44:20.800Z,30.63
2023-07-07T05:45:24.444Z,30.04
2023-07-07T05:46:27.919Z,29.63
2023-07-07T05:47:30.282Z,29.53
2023-07-07T05:48:32.793Z,30.29
2023-07-07T05:49:35.098Z,31.45
2023-07-07T05:50:39.626Z,30.39
2023-07-07T05:51:41.845Z,30.78
2023-07-07T05:52:44.020Z,30.78
2023-07-07T05:53:46.858Z,31.24
2023-07-07T05:54:49.196Z,30.77
2023-07-07T05:55:51.746Z,30.98
2023-07-07T05:56:55.654Z,30.08
2023-07-07T05:57:58.014Z,31.10
2023-07-07T05:59:00.296Z,31.71
2023-07-07T06:00:02.600Z,31.00
2023-07-07T06:01:15.577Z,30.28
2023-07-07T06:02:18.127Z,30.71
2023-07-07T06:03:20.386Z,31.11
2023-07-07T06:04:22.784Z,31.12
2023-07-07T06:05:25.621Z,31.27
2023-07-07T06:06:28.030Z,31.56
2023-07-07T06:07:33.149Z,31.62
2023-07-07T06:08:35.821Z,30.97
2023-07-07T06:09:38.047Z,30.35
2023-07-07T06:10:40.405Z,29.79
2023-07-07T06:11:42.606Z,30.08
2023-07-07T06:12:45.537Z,29.69
2023-07-07T06:13:47.742Z,29.37
2023-07-07T06:14:49.936Z,28.83
2023-07-07T06:15:53.635Z,28.76
2023-07-07T06:16:56.317Z,28.83
2023-07-07T06:18:00.552Z,28.56
2023-07-07T06:19:04.582Z,29.40
2023-07-07T06:20:07.720Z,29.42
2023-07-07T06:21:10.071Z,28.87
2023-07-07T06:22:12.303Z,29.35
2023-07-07T06:23:14.519Z,30.61
2023-07-07T06:24:16.741Z,30.40
2023-07-07T06:25:19.015Z,30.77
2023-07-07T06:26:21.359Z,30.07
2023-07-07T06:27:23.604Z,28.15
2023-07-07T06:28:26.531Z,29.12
2023-07-07T06:29:30.411Z,29.34
2023-07-07T06:30:32.764Z,29.10
2023-07-07T06:31:35.102Z,29.06
2023-07-07T06:32:37.343Z,29.34
2023-07-07T06:33:40.186Z,29.10
2023-07-07T06:34:42.489Z,29.05
2023-07-07T06:35:45.141Z,29.25
2023-07-07T06:36:47.408Z,29.10
2023-07-07T06:37:49.702Z,29.80
2023-07-07T06:38:51.923Z,30.03
2023-07-07T06:39:54.113Z,30.54
2023-07-07T06:40:56.574Z,30.21
2023-07-07T06:42:01.630Z,30.26
2023-07-07T06:43:09.431Z,30.71
2023-07-07T06:44:12.499Z,31.10
2023-07-07T06:45:15.157Z,31.44
2023-07-07T06:46:20.868Z,31.94
2023-07-07T06:47:23.189Z,30.80
2023-07-07T06:48:25.497Z,31.90
2023-07-07T06:49:28.005Z,31.12
2023-07-07T06:50:36.309Z,31.57
2023-07-07T06:51:38.532Z,30.55
2023-07-07T06:52:40.727Z,30.41
2023-07-07T06:53:42.974Z,30.13
2023-07-07T06:54:45.238Z,30.57
2023-07-07T06:55:47.407Z,29.64
2023-07-07T06:56:49.737Z,29.77
2023-07-07T06:57:52.147Z,29.65
2023-07-07T06:58:54.336Z,29.85
2023-07-07T06:59:56.661Z,28.87
2023-07-07T07:00:59.244Z,29.12
2023-07-07T07:02:01.858Z,28.47
2023-07-07T07:03:04.687Z,29.03
2023-07-07T07:04:07.138Z,28.33
2023-07-07T07:05:09.607Z,28.96
2023-07-07T07:06:12.804Z,29.57
2023-07-07T07:07:15.033Z,30.54
2023-07-07T07:08:17.327Z,30.82
2023-07-07T07:09:19.703Z,29.85
2023-07-07T07:10:21.976Z,30.44
2023-07-07T07:11:24.153Z,30.32
2023-07-07T07:12:26.390Z,30.36
2023-07-07T07:13:28.709Z,29.76
2023-07-07T07:14:30.908Z,29.74
2023-07-07T07:15:33.138Z,30.03
2023-07-07T07:16:35.315Z,30.01
2023-07-07T07:17:38.115Z,29.02
2023-07-07T07:18:40.355Z,29.60
2023-07-07T07:19:42.577Z,29.99
2023-07-07T07:20:49.080Z,28.90
2023-07-07T07:21:51.262Z,29.32
2023-07-07T07:22:53.515Z,29.42
2023-07-07T07:23:55.820Z,28.29
2023-07-07T07:24:58.015Z,27.87
2023-07-07T07:26:00.504Z,27.19
2023-07-07T07:27:02.732Z,27.58
2023-07-07T07:28:05.164Z,27.61
2023-07-07T07:29:07.490Z,27.31
2023-07-07T07:30:12.991Z,27.00
2023-07-07T07:31:15.278Z,27.09
2023-07-07T07:32:18.708Z,26.65
2023-07-07T07:33:23.619Z,25.28
2023-07-07T07:34:28.981Z,24.89
2023-07-07T07:35:31.197Z,25.01
2023-07-07T07:36:35.637Z,24.65
2023-07-07T07:37:38.877Z,24.23
2023-07-07T07:38:41.306Z,24.34
2023-07-07T07:39:43.733Z,24.46
2023-07-07T07:40:46.243Z,24.42
2023-07-07T07:41:50.907Z,24.70
2023-07-07T07:42:53.591Z,24.91
2023-07-07T07:43:55.857Z,24.74
2023-07-07T07:44:58.246Z,24.62
2023-07-07T07:46:00.839Z,24.40
2023-07-07T07:47:03.366Z,23.61
2023-07-07T07:48:06.335Z,23.53
2023-07-07T07:49:08.722Z,23.61
2023-07-07T07:50:11.403Z,23.84
2023-07-07T07:51:33.573Z,24.37
2023-07-07T07:52:35.883Z,23.90
2023-07-07T07:53:38.299Z,23.89
2023-07-07T07:54:40.901Z,24.18
2023-07-07T07:55:43.190Z,24.03
2023-07-07T07:56:46.957Z,23.69
2023-07-07T07:57:49.268Z,24.04
2023-07-07T07:58:51.580Z,24.42
2023-07-07T07:59:54.385Z,24.19
2023-07-07T08:00:56.846Z,24.38
2023-07-07T08:01:59.337Z,24.24
2023-07-07T08:03:02.495Z,23.74
2023-07-07T08:04:05.788Z,23.86
2023-07-07T08:05:09.316Z,24.16
2023-07-07T08:06:11.524Z,24.15
2023-07-07T08:07:13.740Z,23.97
2023-07-07T08:08:17.550Z,24.15
2023-07-07T08:09:20.854Z,24.10
2023-07-07T08:10:23.138Z,24.28
2023-07-07T08:11:48.338Z,25.03
2023-07-07T08:12:50.658Z,24.51
2023-07-07T08:13:53.007Z,24.21
2023-07-07T08:14:55.402Z,23.94
2023-07-07T08:15:58.066Z,24.04
2023-07-07T08:17:05.437Z,24.16
2023-07-07T08:18:07.843Z,24.06
2023-07-07T08:19:10.186Z,24.39
2023-07-07T08:20:18.501Z,24.49
2023-07-07T08:21:20.752Z,24.54
2023-07-07T08:22:25.340Z,24.99
2023-07-07T08:23:27.604Z,25.30
2023-07-07T08:24:30.431Z,25.31
2023-07-07T08:25:35.326Z,25.07
2023-07-07T08:26:40.057Z,24.86
2023-07-07T08:28:06.863Z,25.02
2023-07-07T08:29:06.300Z,25.43
2023-07-07T08:30:10.025Z,25.96
2023-07-07T08:31:12.358Z,26.20
2023-07-07T08:32:19.204Z,26.25
2023-07-07T08:33:21.695Z,25.55
2023-07-07T08:34:25.124Z,25.68
2023-07-07T08:35:28.757Z,25.85
2023-07-07T08:36:31.890Z,25.65
2023-07-07T08:37:34.896Z,25.43
2023-07-07T08:38:37.259Z,25.83
2023-07-07T08:39:39.488Z,25.99
2023-07-07T08:40:50.776Z,26.01
2023-07-07T08:41:57.921Z,26.35
2023-07-07T08:43:00.154Z,26.41
2023-07-07T08:44:02.730Z,26.04
2023-07-07T08:45:12.708Z,26.23
2023-07-07T08:46:20.103Z,25.87
2023-07-07T08:47:45.055Z,25.68
2023-07-07T08:49:05.877Z,26.30
2023-07-07T08:50:42.100Z,26.55
2023-07-07T08:51:51.526Z,26.74
2023-07-07T08:52:56.618Z,26.20
2023-07-07T08:55:36.709Z,26.33
2023-07-07T08:57:00.602Z,26.01
2023-07-07T08:58:29.824Z,25.93
2023-07-07T08:59:51.809Z,26.36
2023-07-07T09:01:12.590Z,26.39
2023-07-07T09:02:49.621Z,26.58
2023-07-07T09:04:20.886Z,26.77
2023-07-07T09:05:52.191Z,26.77
2023-07-07T09:07:38.014Z,27.19
2023-07-07T09:08:57.062Z,27.66
2023-07-07T09:10:20.848Z,27.45
2023-07-07T09:11:50.489Z,27.00
2023-07-07T09:13:03.830Z,26.86
2023-07-07T09:14:13.952Z,26.81
2023-07-07T09:15:23.888Z,27.16
2023-07-07T09:16:30.873Z,27.23
2023-07-07T09:17:39.295Z,27.19
2023-07-07T09:19:01.483Z,27.87
2023-07-07T09:20:06.278Z,28.33
2023-07-07T09:21:19.573Z,28.06
2023-07-07T09:22:34.613Z,28.29
2023-07-07T09:23:40.769Z,28.23
2023-07-07T09:24:53.856Z,28.84
2023-07-07T09:26:04.022Z,29.17
2023-07-07T09:27:22.929Z,28.69
2023-07-07T09:28:28.555Z,28.31
2023-07-07T09:29:32.076Z,28.17
2023-07-07T09:30:42.072Z,28.59
2023-07-07T09:31:44.701Z,28.93
2023-07-07T09:32:48.265Z,28.19
2023-07-07T09:33:51.454Z,28.06
2023-07-07T09:34:53.716Z,28.18
2023-07-07T09:36:02.877Z,28.37
2023-07-07T09:37:20.180Z,28.37
2023-07-07T09:38:48.683Z,28.18
2023-07-07T09:40:23.433Z,27.97
2023-07-07T09:41:58.398Z,28.06
2023-07-07T09:43:24.927Z,27.94
2023-07-07T09:44:50.502Z,28.49
2023-07-07T09:46:11.882Z,28.99
2023-07-07T09:47:28.202Z,29.51
2023-07-07T09:48:56.626Z,29.44
2023-07-07T09:50:12.884Z,29.19
2023-07-07T09:51:52.673Z,28.68
2023-07-07T09:53:16.796Z,28.58
2023-07-07T09:54:26.401Z,29.08
2023-07-07T09:55:33.560Z,28.76
2023-07-07T09:56:48.640Z,29.18
2023-07-07T09:58:00.581Z,28.90
2023-07-07T09:59:11.653Z,29.02
2023-07-07T10:00:20.988Z,28.80
2023-07-07T10:01:31.043Z,29.04
2023-07-07T10:02:35.627Z,29.18
2023-07-07T10:03:47.157Z,29.14
2023-07-07T10:04:55.279Z,29.35
2023-07-07T10:06:00.768Z,28.76
2023-07-07T10:07:07.733Z,28.58
2023-07-07T10:08:14.081Z,28.60
2023-07-07T10:09:17.150Z,29.06
2023-07-07T10:10:19.766Z,29.28
2023-07-07T10:12:37.799Z,29.73
2023-07-07T10:13:40.346Z,29.75
2023-07-07T10:14:43.732Z,29.14
2023-07-07T10:15:57.032Z,29.04
2023-07-07T10:17:15.688Z,28.95
2023-07-07T10:18:17.832Z,28.84
2023-07-07T10:19:20.315Z,29.13
2023-07-07T10:20:23.632Z,29.47
2023-07-07T10:21:26.376Z,29.34
2023-07-07T10:22:29.318Z,29.07
2023-07-07T10:23:31.552Z,28.68
2023-07-07T10:24:33.923Z,28.78
2023-07-07T10:25:36.213Z,28.89
2023-07-07T10:26:40.564Z,29.26
2023-07-07T10:27:53.262Z,30.03
2023-07-07T10:28:58.953Z,30.15
2023-07-07T10:30:05.161Z,30.45
2023-07-07T10:31:10.621Z,30.41
2023-07-07T10:32:18.817Z,30.52
2023-07-07T10:33:22.401Z,30.65
2023-07-07T10:34:27.407Z,30.83
2023-07-07T10:35:32.310Z,30.10
2023-07-07T10:36:34.671Z,29.58
2023-07-07T10:37:38.396Z,29.30
2023-07-07T10:38:55.289Z,29.28
2023-07-07T10:40:01.678Z,29.01
2023-07-07T10:41:04.186Z,28.93
2023-07-07T10:42:10.325Z,29.39
2023-07-07T10:43:19.718Z,29.66
2023-07-07T10:44:26.651Z,30.23
2023-07-07T10:45:29.728Z,30.52
2023-07-07T10:46:32.015Z,30.50
2023-07-07T10:47:36.496Z,30.36
2023-07-07T10:48:45.241Z,30.27
2023-07-07T10:49:48.283Z,30.11
2023-07-07T10:51:08.008Z,30.42
2023-07-07T10:53:54.923Z,31.30
2023-07-07T10:55:06.038Z,31.25
2023-07-07T10:56:28.052Z,30.99
2023-07-07T10:57:50.311Z,30.86
2023-07-07T10:59:57.806Z,30.71
2023-07-07T11:01:34.357Z,30.15
2023-07-07T11:02:36.626Z,30.17
2023-07-07T11:04:06.793Z,30.48
2023-07-07T11:05:14.971Z,29.71
2023-07-07T11:06:23.122Z,29.57
2023-07-07T11:07:45.486Z,29.96
2023-07-07T11:08:50.507Z,30.12
2023-07-07T11:10:05.670Z,30.08
2023-07-07T11:11:37.602Z,30.30
2023-07-07T11:12:52.855Z,30.39
2023-07-07T11:14:08.927Z,29.79
2023-07-07T11:15:22.140Z,29.96
2023-07-07T11:16:39.369Z,30.36
2023-07-07T11:17:53.639Z,30.30
2023-07-07T11:19:12.971Z,30.17
2023-07-07T11:20:44.203Z,30.08
2023-07-07T11:22:09.337Z,31.07
2023-07-07T11:23:44.936Z,31.75
2023-07-07T11:24:56.687Z,31.20
2023-07-07T11:26:29.349Z,31.20
2023-07-07T11:28:00.722Z,30.82
2023-07-07T11:29:21.482Z,30.46
2023-07-07T11:30:43.951Z,30.56
2023-07-07T11:31:46.284Z,30.21
2023-07-07T11:33:14.765Z,30.72
2023-07-07T11:34:22.595Z,30.62
2023-07-07T11:35:54.239Z,30.65
2023-07-07T11:37:10.907Z,30.69
2023-07-07T11:38:32.980Z,31.02
2023-07-07T11:39:50.304Z,30.72
2023-07-07T11:41:04.918Z,31.38
2023-07-07T11:42:21.282Z,31.58
2023-07-07T11:43:41.910Z,31.48
2023-07-07T11:45:02.481Z,30.57
2023-07-07T11:46:11.738Z,31.03
2023-07-07T11:47:22.982Z,31.00
2023-07-07T11:49:05.125Z,31.18
2023-07-07T11:50:22.613Z,30.69
2023-07-07T11:52:09.233Z,30.40
2023-07-07T11:53:25.719Z,30.23
2023-07-07T11:54:54.057Z,30.32
2023-07-07T11:56:39.413Z,30.55
2023-07-07T11:58:06.637Z,31.16
2023-07-07T11:59:26.903Z,30.55
2023-07-07T12:00:56.083Z,31.06
2023-07-07T12:02:01.107Z,31.82
2023-07-07T12:03:35.538Z,31.84
2023-07-07T12:04:44.417Z,31.76
2023-07-07T12:05:48.493Z,31.56
2023-07-07T12:06:54.870Z,31.37
2023-07-07T12:08:04.925Z,30.89
2023-07-07T12:09:07.129Z,31.00
2023-07-07T12:10:20.144Z,31.29
2023-07-07T12:11:23.159Z,30.89
2023-07-07T12:12:38.244Z,31.00
2023-07-07T12:13:59.353Z,31.05
2023-07-07T12:15:10.234Z,30.57
2023-07-07T12:16:20.177Z,31.32
2023-07-07T12:17:34.153Z,31.44
2023-07-07T12:18:40.117Z,31.59
2023-07-07T12:19:47.477Z,30.84
2023-07-07T12:20:56.465Z,30.53
2023-07-07T12:22:01.135Z,31.03
2023-07-07T12:23:06.219Z,31.37
2023-07-07T12:24:32.840Z,31.48
2023-07-07T12:25:35.113Z,30.90
2023-07-07T12:26:43.949Z,30.84
2023-07-07T12:27:48.195Z,30.87
2023-07-07T12:29:04.174Z,31.19
2023-07-07T12:30:08.369Z,31.05
2023-07-07T12:31:10.785Z,31.49
2023-07-07T12:32:13.422Z,31.38
2023-07-07T12:33:17.522Z,31.25
2023-07-07T12:34:48.758Z,31.56
2023-07-07T12:35:54.278Z,31.55
2023-07-07T12:36:56.780Z,31.27
2023-07-07T12:38:19.938Z,31.12
2023-07-07T12:39:22.165Z,31.60
2023-07-07T12:40:25.531Z,31.96
2023-07-07T12:41:29.447Z,32.29
2023-07-07T12:42:33.272Z,32.45
2023-07-07T12:43:38.699Z,32.46
2023-07-07T12:44:40.909Z,32.55
2023-07-07T12:45:46.995Z,32.79
2023-07-07T12:46:49.329Z,32.82
2023-07-07T12:47:57.067Z,32.52
2023-07-07T12:49:05.493Z,32.55
2023-07-07T12:50:26.261Z,32.40
2023-07-07T12:51:30.924Z,32.16
2023-07-07T12:52:45.296Z,31.51
2023-07-07T12:53:51.048Z,31.31
2023-07-07T12:54:54.681Z,31.39
2023-07-07T12:56:16.532Z,31.28
2023-07-07T12:57:18.688Z,31.27
2023-07-07T12:58:23.664Z,31.16
2023-07-07T12:59:40.458Z,31.26
2023-07-07T13:00:47.875Z,31.68
2023-07-07T13:02:12.251Z,32.46
2023-07-07T13:03:20.214Z,32.95
2023-07-07T13:04:39.788Z,32.73
2023-07-07T13:05:50.451Z,33.03
2023-07-07T13:06:52.617Z,32.17
2023-07-07T13:08:02.670Z,31.58
2023-07-07T13:09:13.755Z,31.03
2023-07-07T13:10:48.500Z,31.30
2023-07-07T13:11:56.335Z,31.76
2023-07-07T13:13:16.731Z,32.07
2023-07-07T13:14:32.768Z,31.98
2023-07-07T13:15:35.176Z,32.42
2023-07-07T13:16:37.925Z,32.67
2023-07-07T13:17:41.252Z,32.50
2023-07-07T13:18:43.609Z,33.02
2023-07-07T13:19:57.551Z,33.31
2023-07-07T13:21:00.599Z,32.84
2023-07-07T13:22:11.220Z,33.43
2023-07-07T13:23:21.730Z,33.62
2023-07-07T13:24:28.616Z,33.59
2023-07-07T13:25:34.759Z,33.85
2023-07-07T13:26:37.076Z,34.13
2023-07-07T13:27:39.410Z,34.40
2023-07-07T13:28:41.614Z,34.45
2023-07-07T13:29:45.189Z,34.48
2023-07-07T13:30:53.080Z,34.30
2023-07-07T13:31:55.347Z,34.14
2023-07-07T13:32:58.106Z,34.21
2023-07-07T13:34:00.401Z,33.84
2023-07-07T13:35:06.186Z,33.85
2023-07-07T13:36:10.198Z,33.36
2023-07-07T13:37:12.638Z,33.25
2023-07-07T13:38:20.282Z,32.47
2023-07-07T13:39:22.565Z,32.15
2023-07-07T13:40:24.976Z,32.39
2023-07-07T13:41:27.377Z,32.92
2023-07-07T13:42:32.244Z,33.24
2023-07-07T13:43:41.043Z,32.99
2023-07-07T13:44:43.614Z,32.90
2023-07-07T13:45:45.892Z,32.74
2023-07-07T13:47:03.046Z,32.43
2023-07-07T13:48:17.934Z,32.58
2023-07-07T13:49:20.664Z,32.84
2023-07-07T13:50:30.927Z,32.73
2023-07-07T13:51:37.442Z,32.91
2023-07-07T13:52:44.267Z,32.65
2023-07-07T13:53:46.695Z,32.37
2023-07-07T13:54:50.326Z,32.17
2023-07-07T13:55:53.377Z,32.00
2023-07-07T13:57:04.741Z,32.16
2023-07-07T13:58:13.595Z,31.93
2023-07-07T13:59:21.175Z,32.00
2023-07-07T14:00:30.853Z,32.17
2023-07-07T14:01:37.967Z,32.47
2023-07-07T14:02:44.446Z,32.64
2023-07-07T14:03:49.217Z,32.84
2023-07-07T14:04:57.068Z,32.57
2023-07-07T14:06:14.480Z,32.84
2023-07-07T14:07:19.778Z,33.23
2023-07-07T14:08:26.033Z,33.73
2023-07-07T14:09:39.765Z,33.81
2023-07-07T14:10:44.650Z,33.43
2023-07-07T14:11:52.662Z,33.09
2023-07-07T14:12:56.513Z,32.78
2023-07-07T14:14:00.673Z,33.10
2023-07-07T14:15:03.143Z,32.78
2023-07-07T14:16:06.818Z,32.75
2023-07-07T14:17:19.016Z,32.68
2023-07-07T14:18:27.833Z,33.04
2023-07-07T14:19:41.718Z,32.97
2023-07-07T14:20:48.864Z,32.46
2023-07-07T14:21:51.724Z,32.57
2023-07-07T14:22:55.038Z,32.68
2023-07-07T14:23:58.263Z,32.54
2023-07-07T14:25:02.828Z,32.72
2023-07-07T14:26:13.263Z,33.04
2023-07-07T14:27:16.336Z,32.99
2023-07-07T14:28:26.667Z,33.52
2023-07-07T14:29:35.833Z,33.52
2023-07-07T14:30:38.186Z,33.61
2023-07-07T14:31:40.709Z,33.27
2023-07-07T14:32:46.605Z,32.70
2023-07-07T14:33:55.352Z,32.38